createdAt,value
2024-05-09T00:00:31.665Z,0.00
2024-05-09T00:01:29.309Z,0.00
2024-05-09T00:02:28.303Z,0.00
2024-05-09T00:03:28.280Z,0.00
2024-05-09T00:04:28.302Z,0.00
2024-05-09T00:05:28.313Z,0.00
2024-05-09T00:06:28.220Z,0.00
2024-05-09T00:07:28.237Z,0.00
2024-05-09T00:08:28.305Z,0.00
2024-05-09T00:09:28.198Z,0.00
2024-05-09T00:10:35.358Z,0.00
2024-05-09T00:11:29.260Z,0.00
2024-05-09T00:12:28.183Z,0.00
2024-05-09T00:13:28.138Z,0.00
2024-05-09T00:14:28.149Z,0.00
2024-05-09T00:15:28.117Z,0.00
2024-05-09T00:16:28.107Z,0.00
2024-05-09T00:17:28.278Z,0.00
2024-05-09T00:18:28.263Z,0.00
2024-05-09T00:19:28.199Z,0.00
2024-05-09T00:20:36.227Z,0.00
2024-05-09T00:21:29.070Z,0.00
2024-05-09T00:22:28.090Z,0.00
2024-05-09T00:23:28.374Z,0.00
2024-05-09T00:24:28.115Z,0.00
2024-05-09T00:25:28.019Z,0.00
2024-05-09T00:26:28.164Z,0.00
2024-05-09T00:27:27.995Z,0.00
2024-05-09T00:28:28.027Z,0.00
2024-05-09T00:29:28.075Z,0.00
2024-05-09T00:30:33.953Z,0.00
2024-05-09T00:31:28.988Z,0.00
2024-05-09T00:32:28.065Z,0.00
2024-05-09T00:33:28.195Z,0.00
2024-05-09T00:34:28.160Z,0.00
2024-05-09T00:35:28.031Z,0.00
2024-05-09T00:36:28.296Z,0.00
2024-05-09T00:37:27.884Z,0.00
2024-05-09T00:38:27.894Z,0.00
2024-05-09T00:39:27.925Z,0.00
2024-05-09T00:40:37.245Z,0.00
2024-05-09T00:41:28.902Z,0.00
2024-05-09T00:42:27.822Z,0.00
2024-05-09T00:43:27.815Z,0.00
2024-05-09T00:44:27.864Z,0.00
2024-05-09T00:45:27.983Z,0.00
2024-05-09T00:46:27.820Z,0.00
2024-05-09T00:47:27.922Z,0.00
2024-05-09T00:48:27.951Z,0.00
2024-05-09T00:49:27.902Z,0.00
2024-05-09T00:50:35.555Z,0.00
2024-05-09T00:51:28.724Z,0.00
2024-05-09T00:52:27.707Z,0.00
2024-05-09T00:53:27.782Z,0.00
2024-05-09T00:54:27.715Z,0.00
2024-05-09T00:55:27.683Z,0.00
2024-05-09T00:56:27.709Z,0.00
2024-05-09T00:57:27.666Z,0.00
2024-05-09T00:58:27.651Z,0.00
2024-05-09T00:59:27.692Z,0.00
2024-05-09T01:00:35.664Z,0.00
2024-05-09T01:01:28.674Z,0.00
2024-05-09T01:02:27.710Z,0.00
2024-05-09T01:03:28.084Z,0.00
2024-05-09T01:04:27.670Z,0.00
2024-05-09T01:05:27.622Z,0.00
2024-05-09T01:06:27.559Z,0.00
2024-05-09T01:07:27.554Z,0.00
2024-05-09T01:08:27.628Z,0.00
2024-05-09T01:09:27.525Z,0.00
2024-05-09T01:10:32.311Z,0.00
2024-05-09T01:11:28.586Z,0.00
2024-05-09T01:12:27.746Z,0.00
2024-05-09T01:13:27.519Z,0.00
2024-05-09T01:14:27.558Z,0.00
2024-05-09T01:15:27.535Z,0.00
2024-05-09T01:16:27.597Z,0.00
2024-05-09T01:17:27.820Z,0.00
2024-05-09T01:18:27.936Z,0.00
2024-05-09T01:19:27.830Z,0.00
2024-05-09T01:20:37.031Z,0.00
2024-05-09T01:21:28.389Z,0.00
2024-05-09T01:22:27.477Z,0.00
2024-05-09T01:23:27.415Z,0.00
2024-05-09T01:24:27.372Z,0.00
2024-05-09T01:25:27.369Z,0.00
2024-05-09T01:26:27.479Z,0.00
2024-05-09T01:27:27.378Z,0.00
2024-05-09T01:28:27.324Z,0.00
2024-05-09T01:29:27.395Z,0.00
2024-05-09T01:30:33.956Z,0.00
2024-05-09T01:31:28.324Z,0.00
2024-05-09T01:32:27.481Z,0.00
2024-05-09T01:33:27.658Z,0.00
2024-05-09T01:34:27.271Z,0.00
2024-05-09T01:35:27.294Z,0.00
2024-05-09T01:36:27.241Z,0.00
2024-05-09T01:37:27.241Z,0.00
2024-05-09T01:38:27.258Z,0.00
2024-05-09T01:39:27.250Z,0.00
2024-05-09T01:40:36.357Z,0.00
2024-05-09T01:41:28.311Z,0.00
2024-05-09T01:42:27.168Z,0.00
2024-05-09T01:43:27.162Z,0.00
2024-05-09T01:44:27.322Z,0.00
2024-05-09T01:45:27.151Z,0.00
2024-05-09T01:46:27.138Z,0.00
2024-05-09T01:47:27.337Z,0.00
2024-05-09T01:48:27.185Z,0.00
2024-05-09T01:49:27.205Z,0.00
2024-05-09T01:51:27.088Z,0.00
2024-05-09T01:52:27.071Z,0.00
2024-05-09T01:53:27.075Z,0.00
2024-05-09T01:54:27.064Z,0.00
2024-05-09T01:55:27.069Z,0.00
2024-05-09T01:56:27.093Z,0.00
2024-05-09T01:57:27.013Z,0.00
2024-05-09T01:58:27.006Z,0.00
2024-05-09T01:59:27.186Z,0.00
2024-05-09T02:00:36.352Z,0.00
2024-05-09T02:01:28.023Z,0.00
2024-05-09T02:02:27.009Z,0.00
2024-05-09T02:03:27.106Z,0.00
2024-05-09T02:04:27.128Z,0.00
2024-05-09T02:05:27.047Z,0.00
2024-05-09T02:06:26.932Z,0.00
2024-05-09T02:07:26.910Z,0.00
2024-05-09T02:08:26.926Z,0.00
2024-05-09T02:09:26.896Z,0.00
2024-05-09T02:10:32.330Z,0.00
2024-05-09T02:11:27.947Z,0.00
2024-05-09T02:12:26.900Z,0.00
2024-05-09T02:13:26.855Z,0.00
2024-05-09T02:14:26.976Z,0.00
2024-05-09T02:15:26.862Z,0.00
2024-05-09T02:16:26.840Z,0.00
2024-05-09T02:17:27.012Z,0.00
2024-05-09T02:18:26.883Z,0.00
2024-05-09T02:19:26.910Z,0.00
2024-05-09T02:20:33.150Z,0.00
2024-05-09T02:21:27.787Z,0.00
2024-05-09T02:22:26.764Z,0.00
2024-05-09T02:23:26.812Z,0.00
2024-05-09T02:24:26.748Z,0.00
2024-05-09T02:25:26.727Z,0.00
2024-05-09T02:26:26.800Z,0.00
2024-05-09T02:27:26.803Z,0.00
2024-05-09T02:28:26.686Z,0.00
2024-05-09T02:29:26.847Z,0.00
2024-05-09T02:30:36.535Z,0.00
2024-05-09T02:31:27.645Z,0.00
2024-05-09T02:32:26.861Z,0.00
2024-05-09T02:33:26.852Z,0.00
2024-05-09T02:34:26.696Z,0.00
2024-05-09T02:35:26.780Z,0.00
2024-05-09T02:36:26.670Z,0.00
2024-05-09T02:37:26.603Z,0.00
2024-05-09T02:38:26.627Z,0.00
2024-05-09T02:39:26.573Z,0.00
2024-05-09T02:40:35.539Z,0.00
2024-05-09T02:41:27.659Z,0.00
2024-05-09T02:42:26.533Z,0.00
2024-05-09T02:43:26.537Z,0.00
2024-05-09T02:44:26.700Z,0.00
2024-05-09T02:45:26.522Z,0.00
2024-05-09T02:46:26.543Z,0.00
2024-05-09T02:47:26.711Z,0.00
2024-05-09T02:48:26.650Z,0.00
2024-05-09T02:49:26.575Z,0.00
2024-05-09T02:50:34.254Z,0.00
2024-05-09T02:51:27.460Z,0.00
2024-05-09T02:52:26.436Z,0.00
2024-05-09T02:53:26.455Z,0.00
2024-05-09T02:54:26.404Z,0.00
2024-05-09T02:55:26.402Z,0.00
2024-05-09T02:56:26.467Z,0.00
2024-05-09T02:57:26.369Z,0.00
2024-05-09T02:58:26.374Z,0.00
2024-05-09T02:59:26.442Z,0.00
2024-05-09T03:00:34.736Z,0.00
2024-05-09T03:01:27.346Z,0.00
2024-05-09T03:02:26.413Z,0.00
2024-05-09T03:03:26.822Z,0.00
2024-05-09T03:04:26.405Z,0.00
2024-05-09T03:05:26.344Z,0.00
2024-05-09T03:06:26.270Z,0.00
2024-05-09T03:07:26.258Z,0.00
2024-05-09T03:08:26.274Z,0.00
2024-05-09T03:09:26.246Z,0.00
2024-05-09T03:10:28.988Z,0.00
2024-05-09T03:11:27.325Z,0.00
2024-05-09T03:12:26.272Z,0.00
2024-05-09T03:13:26.230Z,0.00
2024-05-09T03:14:26.301Z,0.00
2024-05-09T03:15:26.182Z,0.00
2024-05-09T03:16:26.180Z,0.00
2024-05-09T03:17:26.304Z,0.00
2024-05-09T03:18:26.223Z,0.00
2024-05-09T03:19:26.304Z,0.00
2024-05-09T03:20:32.578Z,0.00
2024-05-09T03:21:27.114Z,0.00
2024-05-09T03:22:26.114Z,0.00
2024-05-09T03:23:26.195Z,0.00
2024-05-09T03:24:26.085Z,0.00
2024-05-09T03:25:26.064Z,0.00
2024-05-09T03:26:26.169Z,0.00
2024-05-09T03:27:26.044Z,0.00
2024-05-09T03:28:26.158Z,0.00
2024-05-09T03:29:26.132Z,0.00
2024-05-09T03:30:35.626Z,0.00
2024-05-09T03:31:26.998Z,0.00
2024-05-09T03:32:26.122Z,0.00
2024-05-09T03:33:26.443Z,0.00
2024-05-09T03:34:26.022Z,0.00
2024-05-09T03:35:26.053Z,0.00
2024-05-09T03:36:25.951Z,0.00
2024-05-09T03:37:25.992Z,0.00
2024-05-09T03:38:25.972Z,0.00
2024-05-09T03:39:25.914Z,0.00
2024-05-09T03:40:29.038Z,5.62
2024-05-09T03:41:25.945Z,5.62
2024-05-09T03:42:25.907Z,5.62
2024-05-09T03:43:25.878Z,5.62
2024-05-09T03:44:25.984Z,5.62
2024-05-09T03:45:25.859Z,5.62
2024-05-09T03:46:25.863Z,5.62
2024-05-09T03:47:26.094Z,11.25
2024-05-09T03:48:26.083Z,11.25
2024-05-09T03:49:26.069Z,11.25
2024-05-09T03:50:30.623Z,11.25
2024-05-09T03:51:26.794Z,16.88
2024-05-09T03:52:25.774Z,16.88
2024-05-09T03:53:25.806Z,16.88
2024-05-09T03:54:25.763Z,16.88
2024-05-09T03:55:25.748Z,22.50
2024-05-09T03:56:25.799Z,22.50
2024-05-09T03:57:25.718Z,22.50
2024-05-09T03:58:25.721Z,28.12
2024-05-09T03:59:25.854Z,28.12
2024-05-09T04:00:34.238Z,28.12
2024-05-09T04:01:26.828Z,33.75
2024-05-09T04:02:25.777Z,33.75
2024-05-09T04:03:25.985Z,39.38
2024-05-09T04:04:25.725Z,39.38
2024-05-09T04:05:25.768Z,39.38
2024-05-09T04:06:25.634Z,45.00
2024-05-09T04:07:25.647Z,45.00
2024-05-09T04:08:25.720Z,50.62
2024-05-09T04:09:25.603Z,50.62
2024-05-09T04:10:32.340Z,56.25
2024-05-09T04:11:26.782Z,56.25
2024-05-09T04:12:25.607Z,56.25
2024-05-09T04:13:25.739Z,61.88
2024-05-09T04:14:25.621Z,61.88
2024-05-09T04:15:25.550Z,67.50
2024-05-09T04:16:25.529Z,67.50
2024-05-09T04:17:25.601Z,73.12
2024-05-09T04:18:25.559Z,78.75
2024-05-09T04:19:25.636Z,78.75
2024-05-09T04:20:35.964Z,84.38
2024-05-09T04:21:26.468Z,84.38
2024-05-09T04:22:25.455Z,90.00
2024-05-09T04:23:25.470Z,95.62
2024-05-09T04:24:25.445Z,95.62
2024-05-09T04:25:25.422Z,101.25
2024-05-09T04:26:25.453Z,101.25
2024-05-09T04:27:25.394Z,106.88
2024-05-09T04:28:25.410Z,106.88
2024-05-09T04:29:25.548Z,112.50
2024-05-09T04:30:34.614Z,112.50
2024-05-09T04:31:26.361Z,118.12
2024-05-09T04:32:25.514Z,123.75
2024-05-09T04:33:25.880Z,123.75
2024-05-09T04:34:25.393Z,129.38
2024-05-09T04:35:25.573Z,135.00
2024-05-09T04:36:25.305Z,135.00
2024-05-09T04:37:25.289Z,140.62
2024-05-09T04:38:25.415Z,140.62
2024-05-09T04:39:25.271Z,140.62
2024-05-09T04:40:32.861Z,146.25
2024-05-09T04:41:26.387Z,146.25
2024-05-09T04:42:25.236Z,151.88
2024-05-09T04:43:25.247Z,157.50
2024-05-09T04:44:25.317Z,157.50
2024-05-09T04:45:25.205Z,163.12
2024-05-09T04:46:25.203Z,168.75
2024-05-09T04:47:25.355Z,168.75
2024-05-09T04:48:25.318Z,174.38
2024-05-09T04:49:25.302Z,180.00
2024-05-09T04:50:33.467Z,180.00
2024-05-09T04:51:26.147Z,185.62
2024-05-09T04:52:25.146Z,191.25
2024-05-09T04:53:25.161Z,196.88
2024-05-09T04:54:33.822Z,202.50
2024-05-09T04:55:26.099Z,202.50
2024-05-09T04:56:25.131Z,208.12
2024-05-09T04:57:25.100Z,213.75
2024-05-09T04:58:25.066Z,219.38
2024-05-09T04:59:25.251Z,225.00
2024-05-09T05:00:34.154Z,225.00
2024-05-09T05:01:26.083Z,230.62
2024-05-09T05:02:25.171Z,236.25
2024-05-09T05:03:25.290Z,241.88
2024-05-09T05:04:25.080Z,247.50
2024-05-09T05:05:25.017Z,253.12
2024-05-09T05:06:25.016Z,253.12
2024-05-09T05:07:24.972Z,258.75
2024-05-09T05:08:25.048Z,258.75
2024-05-09T05:09:24.947Z,264.38
2024-05-09T05:10:33.077Z,270.00
2024-05-09T05:11:26.045Z,275.62
2024-05-09T05:12:25.164Z,275.62
2024-05-09T05:13:25.350Z,281.25
2024-05-09T05:14:25.002Z,286.88
2024-05-09T05:15:24.890Z,286.88
2024-05-09T05:16:24.860Z,292.50
2024-05-09T05:17:25.016Z,292.50
2024-05-09T05:18:25.059Z,292.50
2024-05-09T05:19:24.950Z,298.12
2024-05-09T05:20:32.557Z,309.38
2024-05-09T05:21:26.133Z,309.38
2024-05-09T05:22:24.803Z,315.00
2024-05-09T05:23:24.932Z,320.62
2024-05-09T05:24:24.781Z,331.88
2024-05-09T05:25:24.795Z,331.88
2024-05-09T05:26:24.831Z,337.50
2024-05-09T05:27:24.914Z,337.50
2024-05-09T05:28:24.759Z,348.75
2024-05-09T05:29:24.830Z,354.38
2024-05-09T05:30:28.844Z,365.62
2024-05-09T05:31:25.768Z,371.25
2024-05-09T05:32:24.909Z,376.88
2024-05-09T05:33:24.740Z,382.50
2024-05-09T05:34:24.752Z,388.12
2024-05-09T05:35:24.814Z,393.75
2024-05-09T05:36:24.680Z,405.00
2024-05-09T05:37:24.642Z,405.00
2024-05-09T05:38:27.513Z,410.62
2024-05-09T05:39:24.630Z,416.25
2024-05-09T05:40:32.948Z,427.50
2024-05-09T05:41:25.663Z,438.75
2024-05-09T05:42:24.595Z,450.00
2024-05-09T05:43:24.627Z,461.25
2024-05-09T05:44:24.666Z,483.75
2024-05-09T05:45:24.557Z,489.38
2024-05-09T05:46:24.566Z,466.88
2024-05-09T05:47:24.917Z,461.25
2024-05-09T05:48:24.676Z,478.12
2024-05-09T05:49:24.679Z,506.25
2024-05-09T05:50:32.363Z,511.88
2024-05-09T05:51:25.532Z,534.38
2024-05-09T05:52:24.476Z,579.38
2024-05-09T05:53:25.257Z,601.88
2024-05-09T05:54:24.472Z,607.50
2024-05-09T05:55:24.454Z,618.75
2024-05-09T05:56:24.526Z,613.12
2024-05-09T05:57:24.435Z,635.62
2024-05-09T05:58:24.432Z,652.50
2024-05-09T05:59:24.442Z,669.38
2024-05-09T06:00:30.085Z,680.62
2024-05-09T06:01:25.399Z,691.88
2024-05-09T06:02:24.500Z,714.38
2024-05-09T06:03:24.392Z,736.88
2024-05-09T06:04:24.391Z,748.12
2024-05-09T06:05:27.237Z,759.38
2024-05-09T06:06:24.327Z,759.38
2024-05-09T06:07:24.336Z,770.62
2024-05-09T06:08:27.109Z,793.12
2024-05-09T06:09:24.294Z,804.38
2024-05-09T06:10:29.686Z,815.62
2024-05-09T06:11:25.500Z,826.88
2024-05-09T06:12:24.381Z,849.38
2024-05-09T06:13:24.264Z,871.88
2024-05-09T06:14:24.364Z,894.38
2024-05-09T06:15:24.231Z,905.62
2024-05-09T06:16:24.252Z,933.75
2024-05-09T06:17:24.474Z,978.75
2024-05-09T06:18:24.566Z,1023.75
2024-05-09T06:19:24.436Z,1051.88
2024-05-09T06:20:33.621Z,1046.25
2024-05-09T06:21:25.226Z,1023.75
2024-05-09T06:22:24.154Z,1018.12
2024-05-09T06:23:24.160Z,1012.50
2024-05-09T06:24:24.142Z,1035.00
2024-05-09T06:25:24.153Z,1057.50
2024-05-09T06:26:24.232Z,1080.00
2024-05-09T06:27:24.099Z,1074.38
2024-05-09T06:28:24.104Z,1074.38
2024-05-09T06:29:24.201Z,1108.12
2024-05-09T06:30:30.775Z,1125.00
2024-05-09T06:31:25.083Z,1125.00
2024-05-09T06:32:24.223Z,1147.50
2024-05-09T06:33:24.235Z,1231.88
2024-05-09T06:34:24.119Z,1220.62
2024-05-09T06:35:24.041Z,1136.25
2024-05-09T06:36:24.022Z,1113.75
2024-05-09T06:37:23.997Z,1299.38
2024-05-09T06:38:24.017Z,1215.00
2024-05-09T06:39:24.002Z,1220.62
2024-05-09T06:40:29.270Z,1243.12
2024-05-09T06:41:24.975Z,1265.62
2024-05-09T06:42:24.051Z,1243.12
2024-05-09T06:43:23.919Z,1271.25
2024-05-09T06:44:23.964Z,1316.25
2024-05-09T06:45:23.900Z,1350.00
2024-05-09T06:46:23.922Z,1440.00
2024-05-09T06:47:24.125Z,1687.50
2024-05-09T06:48:24.098Z,1710.00
2024-05-09T06:49:24.001Z,1518.75
2024-05-09T06:50:27.914Z,1580.62
2024-05-09T06:51:24.874Z,1726.88
2024-05-09T06:52:23.831Z,1490.62
2024-05-09T06:53:23.958Z,1631.25
2024-05-09T06:54:23.818Z,1901.25
2024-05-09T06:55:23.790Z,1828.12
2024-05-09T06:56:23.832Z,1698.75
2024-05-09T06:57:23.767Z,1771.88
2024-05-09T06:58:23.776Z,1845.00
2024-05-09T06:59:23.798Z,1861.88
2024-05-09T07:00:30.743Z,1833.75
2024-05-09T07:01:24.760Z,1935.00
2024-05-09T07:02:23.830Z,1991.25
2024-05-09T07:03:23.892Z,1923.75
2024-05-09T07:04:23.757Z,1918.12
2024-05-09T07:05:23.862Z,1856.25
2024-05-09T07:06:23.678Z,1895.62
2024-05-09T07:07:23.693Z,2008.12
2024-05-09T07:08:23.752Z,1935.00
2024-05-09T07:09:23.667Z,1991.25
2024-05-09T07:10:29.028Z,2131.88
2024-05-09T07:11:24.703Z,2086.88
2024-05-09T07:12:23.723Z,2126.25
2024-05-09T07:13:23.611Z,2193.75
2024-05-09T07:14:23.640Z,2025.00
2024-05-09T07:15:23.593Z,2070.00
2024-05-09T07:16:23.579Z,2221.88
2024-05-09T07:17:23.807Z,2233.12
2024-05-09T07:18:23.761Z,2227.50
2024-05-09T07:19:23.683Z,2188.12
2024-05-09T07:20:32.146Z,2171.25
2024-05-09T07:21:24.560Z,2261.25
2024-05-09T07:22:23.536Z,2379.38
2024-05-09T07:23:23.520Z,2463.75
2024-05-09T07:24:23.492Z,2356.88
2024-05-09T07:25:23.481Z,2311.88
2024-05-09T07:26:23.573Z,2345.62
2024-05-09T07:27:23.464Z,2233.12
2024-05-09T07:28:23.456Z,2244.38
2024-05-09T07:29:23.461Z,2497.50
2024-05-09T07:30:30.560Z,2553.75
2024-05-09T07:31:24.459Z,2469.38
2024-05-09T07:32:23.524Z,2401.88
2024-05-09T07:33:24.483Z,2328.75
2024-05-09T07:34:23.611Z,2362.50
2024-05-09T07:35:23.486Z,2520.00
2024-05-09T07:36:23.365Z,2638.12
2024-05-09T07:37:23.390Z,2615.62
2024-05-09T07:38:23.446Z,2587.50
2024-05-09T07:39:23.342Z,2525.62
2024-05-09T07:40:32.455Z,2362.50
2024-05-09T07:41:24.437Z,2435.62
2024-05-09T07:42:23.308Z,2761.88
2024-05-09T07:43:23.298Z,2761.88
2024-05-09T07:44:23.429Z,2514.38
2024-05-09T07:45:41.679Z,2621.25
2024-05-09T07:47:17.306Z,2874.38
2024-05-09T07:48:56.830Z,2840.62
2024-05-09T07:53:30.373Z,2784.38
2024-05-09T07:54:23.396Z,2750.62
2024-05-09T07:55:23.335Z,2458.12
2024-05-09T07:56:24.307Z,2593.12
2024-05-09T07:57:23.199Z,3037.50
2024-05-09T07:58:23.157Z,3020.62
2024-05-09T07:59:23.149Z,2773.12
2024-05-09T08:00:29.757Z,2919.38
2024-05-09T08:01:24.443Z,3060.00
2024-05-09T08:02:23.271Z,2806.88
2024-05-09T08:03:23.488Z,2424.38
2024-05-09T08:04:25.242Z,2576.25
2024-05-09T08:05:23.164Z,2953.12
2024-05-09T08:06:23.054Z,3076.88
2024-05-09T08:07:23.157Z,3031.88
2024-05-09T08:08:23.116Z,3043.12
2024-05-09T08:09:23.024Z,2998.12
2024-05-09T08:10:28.443Z,2953.12
2024-05-09T08:11:24.210Z,3071.25
2024-05-09T08:12:23.005Z,3178.12
2024-05-09T08:13:23.283Z,3172.50
2024-05-09T08:14:22.966Z,3318.75
2024-05-09T08:15:22.968Z,3526.88
2024-05-09T08:16:23.150Z,3476.25
2024-05-09T08:17:23.069Z,3262.50
2024-05-09T08:18:22.994Z,3116.25
2024-05-09T08:19:23.022Z,2925.00
2024-05-09T08:20:30.681Z,2992.50
2024-05-09T08:21:23.903Z,3285.00
2024-05-09T08:22:22.937Z,3369.38
2024-05-09T08:23:22.880Z,3256.88
2024-05-09T08:24:22.867Z,3296.25
2024-05-09T08:25:22.895Z,3335.62
2024-05-09T08:26:22.919Z,3363.75
2024-05-09T08:27:22.853Z,3470.62
2024-05-09T08:28:22.899Z,3459.38
2024-05-09T08:29:22.820Z,3375.00
2024-05-09T08:30:29.806Z,3313.12
2024-05-09T08:31:23.863Z,3189.38
2024-05-09T08:32:22.810Z,3166.88
2024-05-09T08:33:22.942Z,3301.88
2024-05-09T08:34:22.906Z,3358.12
2024-05-09T08:35:22.762Z,3386.25
2024-05-09T08:36:22.759Z,3391.88
2024-05-09T08:37:26.059Z,3341.25
2024-05-09T08:38:23.744Z,3369.38
2024-05-09T08:39:22.747Z,3476.25
2024-05-09T08:40:30.694Z,3628.12
2024-05-09T08:41:23.709Z,3768.75
2024-05-09T08:42:22.672Z,3853.12
2024-05-09T08:43:22.978Z,3723.75
2024-05-09T08:44:22.887Z,3543.75
2024-05-09T08:45:22.735Z,3555.00
2024-05-09T08:46:22.947Z,3774.38
2024-05-09T08:47:22.806Z,3954.38
2024-05-09T08:48:22.980Z,4066.88
2024-05-09T08:49:22.857Z,4044.38
2024-05-09T08:50:31.786Z,3926.25
2024-05-09T08:51:23.602Z,3830.62
2024-05-09T08:52:22.585Z,3847.50
2024-05-09T08:53:22.658Z,3870.00
2024-05-09T08:54:22.587Z,3780.00
2024-05-09T08:55:22.665Z,3616.88
2024-05-09T08:56:22.553Z,3661.88
2024-05-09T08:57:22.554Z,3723.75
2024-05-09T08:58:22.559Z,3628.12
2024-05-09T08:59:22.816Z,3498.75
2024-05-09T09:00:33.361Z,3560.62
2024-05-09T09:01:23.642Z,3690.00
2024-05-09T09:02:22.762Z,3892.50
2024-05-09T09:03:22.618Z,4050.00
2024-05-09T09:04:22.579Z,4100.62
2024-05-09T09:05:22.515Z,4005.00
2024-05-09T09:06:22.458Z,3825.00
2024-05-09T09:07:22.482Z,3594.38
2024-05-09T09:08:22.428Z,3498.75
2024-05-09T09:09:22.443Z,3892.50
2024-05-09T09:10:29.615Z,4471.88
2024-05-09T09:11:23.454Z,4623.75
2024-05-09T09:12:22.393Z,4533.75
2024-05-09T09:13:22.436Z,4314.38
2024-05-09T09:14:22.387Z,4410.00
2024-05-09T09:15:22.365Z,4573.12
2024-05-09T09:16:22.503Z,4584.38
2024-05-09T09:17:22.436Z,4460.62
2024-05-09T09:18:22.473Z,4353.75
2024-05-09T09:19:22.507Z,4404.38
2024-05-09T09:20:28.762Z,4415.62
2024-05-09T09:21:23.307Z,4224.38
2024-05-09T09:22:22.323Z,3667.50
2024-05-09T09:23:22.315Z,3206.25
2024-05-09T09:24:22.281Z,2964.38
2024-05-09T09:25:22.293Z,3465.00
2024-05-09T09:26:22.274Z,4156.88
2024-05-09T09:27:22.270Z,4432.50
2024-05-09T09:28:22.334Z,4471.88
2024-05-09T09:29:22.256Z,4466.25
2024-05-09T09:30:34.506Z,4539.38
2024-05-09T09:31:23.330Z,4471.88
2024-05-09T09:32:22.728Z,4398.75
2024-05-09T09:33:22.328Z,4438.12
2024-05-09T09:34:22.346Z,4460.62
2024-05-09T09:35:22.251Z,4533.75
2024-05-09T09:36:22.176Z,4567.50
2024-05-09T09:37:22.173Z,4601.25
2024-05-09T09:38:22.151Z,4668.75
2024-05-09T09:39:22.164Z,4606.88
2024-05-09T09:40:25.518Z,4466.25
2024-05-09T09:41:22.141Z,4398.75
2024-05-09T09:42:22.120Z,4404.38
2024-05-09T09:43:22.732Z,4511.25
2024-05-09T09:44:22.104Z,4567.50
2024-05-09T09:45:22.113Z,4556.25
2024-05-09T09:46:22.135Z,4477.50
2024-05-09T09:47:22.150Z,4460.62
2024-05-09T09:48:22.808Z,4494.38
2024-05-09T09:49:22.074Z,4528.12
2024-05-09T09:50:27.916Z,4545.00
2024-05-09T09:51:23.028Z,4578.75
2024-05-09T09:52:22.228Z,4595.62
2024-05-09T09:53:21.993Z,4393.12
2024-05-09T09:54:22.000Z,4218.75
2024-05-09T09:55:22.093Z,4398.75
2024-05-09T09:56:22.008Z,4674.38
2024-05-09T09:57:21.957Z,4893.75
2024-05-09T09:58:22.067Z,4882.50
2024-05-09T09:59:21.955Z,4792.50
2024-05-09T10:00:27.205Z,4680.00
2024-05-09T10:01:23.137Z,4595.62
2024-05-09T10:02:22.074Z,4640.62
2024-05-09T10:03:22.020Z,4786.88
2024-05-09T10:04:22.036Z,5028.75
2024-05-09T10:05:22.158Z,5124.38
2024-05-09T10:06:21.953Z,4921.88
2024-05-09T10:07:21.948Z,4584.38
2024-05-09T10:08:21.880Z,4443.75
2024-05-09T10:09:21.878Z,4438.12
2024-05-09T10:10:29.877Z,4466.25
2024-05-09T10:11:22.983Z,4691.25
2024-05-09T10:12:21.911Z,4966.88
2024-05-09T10:13:21.929Z,5175.00
2024-05-09T10:14:21.838Z,5281.88
2024-05-09T10:15:21.793Z,5197.50
2024-05-09T10:16:22.141Z,5000.62
2024-05-09T10:17:21.801Z,4933.12
2024-05-09T10:18:21.830Z,4831.88
2024-05-09T10:19:21.949Z,4820.62
2024-05-09T10:20:25.422Z,4854.38
2024-05-09T10:21:22.758Z,4933.12
2024-05-09T10:22:21.739Z,5079.38
2024-05-09T10:23:21.738Z,4978.12
2024-05-09T10:24:21.725Z,4758.75
2024-05-09T10:25:21.916Z,4578.75
2024-05-09T10:26:21.701Z,4494.38
2024-05-09T10:27:21.697Z,4674.38
2024-05-09T10:28:21.742Z,4854.38
2024-05-09T10:29:21.695Z,4905.00
2024-05-09T10:30:29.488Z,4865.62
2024-05-09T10:31:22.716Z,4938.75
2024-05-09T10:32:21.728Z,5056.88
2024-05-09T10:33:21.753Z,4995.00
2024-05-09T10:34:21.930Z,4972.50
2024-05-09T10:35:21.627Z,5281.88
2024-05-09T10:36:21.686Z,5118.75
2024-05-09T10:37:21.737Z,4618.12
2024-05-09T10:38:21.613Z,4162.50
2024-05-09T10:39:21.591Z,4477.50
2024-05-09T10:40:26.600Z,4871.25
2024-05-09T10:41:22.681Z,5186.25
2024-05-09T10:42:21.578Z,5152.50
2024-05-09T10:43:21.600Z,4837.50
2024-05-09T10:44:21.540Z,4882.50
2024-05-09T10:45:21.555Z,5208.75
2024-05-09T10:46:21.813Z,5270.62
2024-05-09T10:47:21.592Z,5096.25
2024-05-09T10:48:21.594Z,5000.62
2024-05-09T10:49:21.669Z,4865.62
2024-05-09T10:50:28.166Z,4719.38
2024-05-09T10:51:22.469Z,4736.25
2024-05-09T10:52:21.510Z,4764.38
2024-05-09T10:53:21.464Z,4792.50
2024-05-09T10:54:21.483Z,4635.00
2024-05-09T10:55:21.990Z,4696.88
2024-05-09T10:56:21.456Z,4961.25
2024-05-09T10:57:21.429Z,5186.25
2024-05-09T10:58:21.422Z,5242.50
2024-05-09T10:59:21.402Z,5186.25
2024-05-09T11:00:27.706Z,5146.88
2024-05-09T11:01:22.523Z,5090.62
2024-05-09T11:02:21.565Z,5051.25
2024-05-09T11:03:21.657Z,4955.62
2024-05-09T11:04:21.534Z,4837.50
2024-05-09T11:05:21.552Z,4758.75
2024-05-09T11:06:21.357Z,4815.00
2024-05-09T11:07:21.557Z,4921.88
2024-05-09T11:08:21.309Z,5118.75
2024-05-09T11:09:21.329Z,5203.12
2024-05-09T11:10:27.727Z,5186.25
2024-05-09T11:11:22.323Z,5135.62
2024-05-09T11:12:22.839Z,5152.50
2024-05-09T11:13:21.315Z,5248.12
2024-05-09T11:14:21.256Z,5428.12
2024-05-09T11:15:21.265Z,5501.25
2024-05-09T11:16:21.691Z,5388.75
2024-05-09T11:17:21.411Z,5197.50
2024-05-09T11:18:24.453Z,4966.88
2024-05-09T11:19:21.362Z,4899.38
2024-05-09T11:20:29.079Z,4876.88
2024-05-09T11:21:22.195Z,4826.25
2024-05-09T11:22:21.240Z,4876.88
2024-05-09T11:23:21.202Z,5068.12
2024-05-09T11:24:21.177Z,5146.88
2024-05-09T11:25:21.189Z,5028.75
2024-05-09T11:26:21.188Z,4978.12
2024-05-09T11:27:21.145Z,5073.75
2024-05-09T11:28:21.260Z,5186.25
2024-05-09T11:29:21.142Z,5326.88
2024-05-09T11:30:26.971Z,5248.12
2024-05-09T11:31:22.462Z,5034.38
2024-05-09T11:32:21.167Z,4860.00
2024-05-09T11:33:21.154Z,4888.12
2024-05-09T11:34:21.114Z,5146.88
2024-05-09T11:35:21.087Z,5276.25
2024-05-09T11:36:21.068Z,5208.75
2024-05-09T11:37:21.108Z,4927.50
2024-05-09T11:38:21.042Z,4640.62
2024-05-09T11:39:21.068Z,4466.25
2024-05-09T11:40:25.574Z,4421.25
2024-05-09T11:41:22.011Z,4685.62
2024-05-09T11:42:21.023Z,4905.00
2024-05-09T11:43:21.350Z,5073.75
2024-05-09T11:44:21.009Z,5208.75
2024-05-09T11:45:20.985Z,5208.75
2024-05-09T11:46:21.108Z,5011.88
2024-05-09T11:47:21.080Z,4803.75
2024-05-09T11:48:21.482Z,4663.12
2024-05-09T11:49:23.131Z,4488.75
2024-05-09T11:50:27.209Z,4387.50
2024-05-09T11:51:21.934Z,4269.38
2024-05-09T11:52:20.969Z,4207.50
2024-05-09T11:53:20.928Z,4241.25
2024-05-09T11:54:20.992Z,4286.25
2024-05-09T11:55:22.507Z,4325.62
2024-05-09T11:56:20.903Z,4393.12
2024-05-09T11:57:20.886Z,4365.00
2024-05-09T11:58:21.169Z,4291.88
2024-05-09T11:59:20.864Z,4005.00
2024-05-09T12:00:29.435Z,3892.50
2024-05-09T12:01:23.126Z,3796.88
2024-05-09T12:02:20.944Z,3723.75
2024-05-09T12:03:20.920Z,3718.12
2024-05-09T12:04:21.197Z,3841.88
2024-05-09T12:05:21.095Z,4089.38
2024-05-09T12:06:20.927Z,4455.00
2024-05-09T12:07:20.933Z,4713.75
2024-05-09T12:08:20.777Z,4826.25
2024-05-09T12:09:20.802Z,4792.50
2024-05-09T12:10:26.051Z,4663.12
2024-05-09T12:11:21.838Z,4359.38
2024-05-09T12:12:20.759Z,4168.12
2024-05-09T12:13:20.844Z,4314.38
2024-05-09T12:14:20.731Z,4460.62
2024-05-09T12:15:20.713Z,4595.62
2024-05-09T12:16:20.887Z,4674.38
2024-05-09T12:17:20.864Z,4725.00
2024-05-09T12:18:20.714Z,4736.25
2024-05-09T12:19:20.741Z,4584.38
2024-05-09T12:20:28.584Z,4241.25
2024-05-09T12:21:21.671Z,4033.12
2024-05-09T12:22:20.729Z,4156.88
2024-05-09T12:23:20.649Z,4404.38
2024-05-09T12:24:20.656Z,4612.50
2024-05-09T12:25:20.677Z,4775.62
2024-05-09T12:26:20.643Z,4876.88
2024-05-09T12:27:20.624Z,4837.50
2024-05-09T12:28:20.689Z,4651.88
2024-05-09T12:29:20.591Z,4590.00
2024-05-09T12:30:32.487Z,4623.75
2024-05-09T12:31:21.611Z,4680.00
2024-05-09T12:32:20.655Z,4685.62
2024-05-09T12:33:20.818Z,4623.75
2024-05-09T12:34:20.600Z,4528.12
2024-05-09T12:35:20.551Z,4455.00
2024-05-09T12:36:20.530Z,4573.12
2024-05-09T12:37:20.566Z,4713.75
2024-05-09T12:38:20.533Z,4584.38